sensor_id;sensor_type;location;lat;lon;timestamp;pressure;altitude;pressure_sealevel;temperature;humidity
49627;BME280;35527;54.616;39.786;2022-12-15T00:02:13;100420.75;;;-8.13;100.00
49627;BME280;35527;54.616;39.786;2022-12-15T00:05:35;100422.19;;;-8.19;100.00
49627;BME280;35527;54.616;39.786;2022-12-15T00:09:00;100424.22;;;-8.11;100.00
49627;BME280;35527;54.616;39.786;2022-12-15T00:12:24;100451.13;;;-8.09;100.00
49627;BME280;35527;54.616;39.786;2022-12-15T00:15:52;100459.50;;;-8.08;100.00
49627;BME280;35527;54.616;39.786;2022-12-15T00:19:13;100472.91;;;-8.08;100.00
49627;BME280;35527;54.616;39.786;2022-12-15T00:22:38;100456.34;;;-8.22;100.00
49627;BME280;35527;54.616;39.786;2022-12-15T00:26:02;100454.50;;;-8.26;100.00
49627;BME280;35527;54.616;39.786;2022-12-15T00:29:25;100460.00;;;-8.33;100.00
49627;BME280;35527;54.616;39.786;2022-12-15T00:32:47;100480.75;;;-8.20;100.00
49627;BME280;35527;54.616;39.786;2022-12-15T00:36:12;100461.00;;;-8.30;100.00
49627;BME280;35527;54.616;39.786;2022-12-15T00:39:33;100480.50;;;-8.24;100.00
49627;BME280;35527;54.616;39.786;2022-12-15T00:42:37;100458.94;;;-8.39;100.00
49627;BME280;35527;54.616;39.786;2022-12-15T00:45:41;100464.16;;;-8.34;100.00
49627;BME280;35527;54.616;39.786;2022-12-15T00:49:12;100475.28;;;-8.29;100.00
49627;BME280;35527;54.616;39.786;2022-12-15T00:52:36;100479.22;;;-8.34;100.00
49627;BME280;35527;54.616;39.786;2022-12-15T00:55:58;100480.75;;;-8.38;100.00
49627;BME280;35527;54.616;39.786;2022-12-15T00:59:22;100476.38;;;-8.42;100.00
49627;BME280;35527;54.616;39.786;2022-12-15T01:02:44;100478.13;;;-8.41;100.00
49627;BME280;35527;54.616;39.786;2022-12-15T01:06:17;100477.19;;;-8.43;100.00
49627;BME280;35527;54.616;39.786;2022-12-15T01:09:43;100474.94;;;-8.54;100.00
49627;BME280;35527;54.616;39.786;2022-12-15T01:13:11;100482.75;;;-8.48;100.00
49627;BME280;35527;54.616;39.786;2022-12-15T01:16:35;100486.84;;;-8.50;100.00
49627;BME280;35527;54.616;39.786;2022-12-15T01:19:58;100486.94;;;-8.49;100.00
49627;BME280;35527;54.616;39.786;2022-12-15T01:23:19;100506.44;;;-8.43;100.00
49627;BME280;35527;54.616;39.786;2022-12-15T01:26:22;100481.38;;;-8.59;100.00
49627;BME280;35527;54.616;39.786;2022-12-15T01:29:27;100497.66;;;-8.51;100.00
49627;BME280;35527;54.616;39.786;2022-12-15T01:32:31;100510.28;;;-8.50;100.00
49627;BME280;35527;54.616;39.786;2022-12-15T01:35:37;100499.66;;;-8.62;100.00
49627;BME280;35527;54.616;39.786;2022-12-15T01:38:42;100501.00;;;-8.69;100.00
49627;BME280;35527;54.616;39.786;2022-12-15T01:41:45;100484.63;;;-8.78;100.00
49627;BME280;35527;54.616;39.786;2022-12-15T01:44:51;100494.59;;;-8.80;100.00
49627;BME280;35527;54.616;39.786;2022-12-15T01:47:58;100498.50;;;-8.69;100.00
49627;BME280;35527;54.616;39.786;2022-12-15T01:54:47;100523.63;;;-8.51;100.00
49627;BME280;35527;54.616;39.786;2022-12-15T01:58:00;100516.81;;;-8.53;100.00
49627;BME280;35527;54.616;39.786;2022-12-15T02:01:07;100529.03;;;-8.43;100.00
49627;BME280;35527;54.616;39.786;2022-12-15T02:04:11;100529.97;;;-8.41;100.00
49627;BME280;35527;54.616;39.786;2022-12-15T02:07:16;100528.06;;;-8.45;100.00
49627;BME280;35527;54.616;39.786;2022-12-15T02:10:22;100536.09;;;-8.34;100.00
49627;BME280;35527;54.616;39.786;2022-12-15T02:13:38;100523.22;;;-8.42;100.00
49627;BME280;35527;54.616;39.786;2022-12-15T02:20:16;100513.53;;;-8.52;100.00
49627;BME280;35527;54.616;39.786;2022-12-15T02:27:11;100543.38;;;-8.41;100.00
49627;BME280;35527;54.616;39.786;2022-12-15T02:33:57;100527.22;;;-8.46;100.00
49627;BME280;35527;54.616;39.786;2022-12-15T02:37:15;100528.63;;;-8.51;100.00
49627;BME280;35527;54.616;39.786;2022-12-15T02:40:22;100537.03;;;-8.50;100.00
49627;BME280;35527;54.616;39.786;2022-12-15T02:43:25;100538.28;;;-8.58;100.00
49627;BME280;35527;54.616;39.786;2022-12-15T02:59:41;100539.59;;;-8.67;100.00
49627;BME280;35527;54.616;39.786;2022-12-15T03:02:49;100536.94;;;-8.70;100.00
49627;BME280;35527;54.616;39.786;2022-12-15T03:05:54;100563.19;;;-8.63;100.00
49627;BME280;35527;54.616;39.786;2022-12-15T03:08:59;100559.72;;;-8.65;100.00
49627;BME280;35527;54.616;39.786;2022-12-15T03:12:05;100554.63;;;-8.67;100.00
49627;BME280;35527;54.616;39.786;2022-12-15T03:15:11;100531.28;;;-8.82;100.00
49627;BME280;35527;54.616;39.786;2022-12-15T03:18:14;100547.28;;;-8.80;100.00
49627;BME280;35527;54.616;39.786;2022-12-15T03:21:17;100525.66;;;-8.94;100.00
49627;BME280;35527;54.616;39.786;2022-12-15T03:24:24;100539.84;;;-8.95;100.00
49627;BME280;35527;54.616;39.786;2022-12-15T03:27:28;100531.06;;;-9.03;100.00
49627;BME280;35527;54.616;39.786;2022-12-15T03:30:31;100560.59;;;-8.97;100.00
49627;BME280;35527;54.616;39.786;2022-12-15T03:33:35;100559.91;;;-8.95;100.00
49627;BME280;35527;54.616;39.786;2022-12-15T03:36:39;100529.81;;;-9.11;100.00
49627;BME280;35527;54.616;39.786;2022-12-15T03:39:42;100550.44;;;-9.00;100.00
49627;BME280;35527;54.616;39.786;2022-12-15T03:42:45;100558.00;;;-8.99;100.00
49627;BME280;35527;54.616;39.786;2022-12-15T03:45:53;100535.47;;;-9.15;100.00
49627;BME280;35527;54.616;39.786;2022-12-15T03:48:58;100549.31;;;-9.05;100.00
49627;BME280;35527;54.616;39.786;2022-12-15T03:52:03;100558.72;;;-9.01;100.00
49627;BME280;35527;54.616;39.786;2022-12-15T03:55:08;100562.81;;;-9.03;100.00
49627;BME280;35527;54.616;39.786;2022-12-15T03:58:12;100557.38;;;-9.11;100.00
49627;BME280;35527;54.616;39.786;2022-12-15T04:01:29;100565.84;;;-9.09;100.00
49627;BME280;35527;54.616;39.786;2022-12-15T04:04:32;100582.16;;;-9.01;100.00
49627;BME280;35527;54.616;39.786;2022-12-15T04:07:35;100565.69;;;-9.12;100.00
49627;BME280;35527;54.616;39.786;2022-12-15T04:10:41;100578.41;;;-9.09;100.00
49627;BME280;35527;54.616;39.786;2022-12-15T04:13:46;100590.78;;;-9.12;100.00
49627;BME280;35527;54.616;39.786;2022-12-15T04:16:50;100596.47;;;-9.15;100.00
49627;BME280;35527;54.616;39.786;2022-12-15T04:19:52;100572.94;;;-9.33;100.00
49627;BME280;35527;54.616;39.786;2022-12-15T04:23:13;100596.88;;;-9.23;100.00
49627;BME280;35527;54.616;39.786;2022-12-15T04:26:19;100583.13;;;-9.30;100.00
49627;BME280;35527;54.616;39.786;2022-12-15T04:29:41;100612.22;;;-9.17;100.00
49627;BME280;35527;54.616;39.786;2022-12-15T04:33:06;100590.75;;;-9.28;100.00
49627;BME280;35527;54.616;39.786;2022-12-15T04:36:34;100610.50;;;-9.18;100.00
49627;BME280;35527;54.616;39.786;2022-12-15T04:39:59;100596.38;;;-9.33;100.00
49627;BME280;35527;54.616;39.786;2022-12-15T04:43:20;100624.50;;;-9.22;100.00
49627;BME280;35527;54.616;39.786;2022-12-15T04:46:44;100629.50;;;-9.22;100.00
49627;BME280;35527;54.616;39.786;2022-12-15T04:50:07;100630.56;;;-9.18;100.00
49627;BME280;35527;54.616;39.786;2022-12-15T04:53:28;100635.63;;;-9.17;100.00
49627;BME280;35527;54.616;39.786;2022-12-15T04:57:14;100636.50;;;-9.16;100.00
49627;BME280;35527;54.616;39.786;2022-12-15T05:00:36;100645.81;;;-9.14;100.00
49627;BME280;35527;54.616;39.786;2022-12-15T05:03:57;100631.69;;;-9.28;100.00
49627;BME280;35527;54.616;39.786;2022-12-15T05:07:23;100654.19;;;-9.13;100.00
49627;BME280;35527;54.616;39.786;2022-12-15T05:10:47;100656.09;;;-9.09;100.00
49627;BME280;35527;54.616;39.786;2022-12-15T05:14:08;100647.31;;;-9.17;100.00
49627;BME280;35527;54.616;39.786;2022-12-15T05:17:32;100659.31;;;-9.12;100.00
49627;BME280;35527;54.616;39.786;2022-12-15T05:20:56;100642.84;;;-9.23;100.00
49627;BME280;35527;54.616;39.786;2022-12-15T05:24:18;100670.13;;;-9.13;100.00
49627;BME280;35527;54.616;39.786;2022-12-15T05:27:39;100680.16;;;-9.13;100.00
49627;BME280;35527;54.616;39.786;2022-12-15T05:31:05;100655.22;;;-9.26;100.00
49627;BME280;35527;54.616;39.786;2022-12-15T05:34:30;100664.59;;;-9.22;100.00
49627;BME280;35527;54.616;39.786;2022-12-15T05:37:35;100664.38;;;-9.26;100.00
49627;BME280;35527;54.616;39.786;2022-12-15T05:40:38;100699.59;;;-9.09;100.00
49627;BME280;35527;54.616;39.786;2022-12-15T05:43:44;100686.88;;;-9.12;100.00
49627;BME280;35527;54.616;39.786;2022-12-15T05:46:49;100677.28;;;-9.19;100.00
49627;BME280;35527;54.616;39.786;2022-12-15T05:49:52;100673.41;;;-9.14;100.00
49627;BME280;35527;54.616;39.786;2022-12-15T05:52:58;100705.13;;;-8.83;100.00
49627;BME280;35527;54.616;39.786;2022-12-15T05:56:05;100704.63;;;-8.61;100.00
49627;BME280;35527;54.616;39.786;2022-12-15T05:59:08;100701.06;;;-8.32;100.00
49627;BME280;35527;54.616;39.786;2022-12-15T06:02:13;100710.09;;;-7.85;100.00
49627;BME280;35527;54.616;39.786;2022-12-15T06:05:20;100730.13;;;-7.16;100.00
49627;BME280;35527;54.616;39.786;2022-12-15T06:08:23;100735.06;;;-6.45;100.00
49627;BME280;35527;54.616;39.786;2022-12-15T06:11:28;100725.38;;;-5.76;100.00
49627;BME280;35527;54.616;39.786;2022-12-15T06:14:31;100725.22;;;-5.17;100.00
49627;BME280;35527;54.616;39.786;2022-12-15T06:17:35;100714.44;;;-4.68;100.00
49627;BME280;35527;54.616;39.786;2022-12-15T06:20:38;100715.34;;;-4.20;100.00
49627;BME280;35527;54.616;39.786;2022-12-15T06:23:43;100670.50;;;-4.25;100.00
49627;BME280;35527;54.616;39.786;2022-12-15T06:26:47;100718.81;;;-3.92;100.00
49627;BME280;35527;54.616;39.786;2022-12-15T06:29:51;100721.59;;;-3.60;100.00
49627;BME280;35527;54.616;39.786;2022-12-15T06:32:55;100730.81;;;-3.08;100.00
49627;BME280;35527;54.616;39.786;2022-12-15T06:36:17;100729.19;;;-2.49;100.00
49627;BME280;35527;54.616;39.786;2022-12-15T06:39:20;100732.47;;;-1.91;100.00
49627;BME280;35527;54.616;39.786;2022-12-15T06:42:25;100721.38;;;-1.62;100.00
49627;BME280;35527;54.616;39.786;2022-12-15T06:45:47;100747.97;;;-1.47;100.00
49627;BME280;35527;54.616;39.786;2022-12-15T06:48:51;100729.22;;;-1.52;98.36
49627;BME280;35527;54.616;39.786;2022-12-15T06:51:55;100730.56;;;-1.32;94.64
49627;BME280;35527;54.616;39.786;2022-12-15T06:55:02;100751.34;;;-0.76;91.08
49627;BME280;35527;54.616;39.786;2022-12-15T06:58:05;100734.31;;;-0.39;87.09
49627;BME280;35527;54.616;39.786;2022-12-15T07:01:07;100752.75;;;-0.07;82.58
49627;BME280;35527;54.616;39.786;2022-12-15T07:04:10;100759.06;;;0.14;76.94
49627;BME280;35527;54.616;39.786;2022-12-15T07:07:16;100767.59;;;0.16;73.82
49627;BME280;35527;54.616;39.786;2022-12-15T07:10:21;100759.28;;;0.25;71.89
49627;BME280;35527;54.616;39.786;2022-12-15T07:13:24;100760.38;;;-0.07;69.62
49627;BME280;35527;54.616;39.786;2022-12-15T07:16:29;100772.53;;;-0.36;69.46
49627;BME280;35527;54.616;39.786;2022-12-15T07:19:40;100779.03;;;-0.88;68.17
49627;BME280;35527;54.616;39.786;2022-12-15T07:22:49;100775.19;;;-1.07;69.24
49627;BME280;35527;54.616;39.786;2022-12-15T07:25:54;100778.84;;;-1.30;69.85
49627;BME280;35527;54.616;39.786;2022-12-15T07:28:58;100792.28;;;-1.34;69.97
49627;BME280;35527;54.616;39.786;2022-12-15T07:32:06;100750.09;;;-2.28;71.99
49627;BME280;35527;54.616;39.786;2022-12-15T07:35:09;100791.91;;;-2.42;75.24
49627;BME280;35527;54.616;39.786;2022-12-15T07:38:12;100791.75;;;-2.18;77.67
49627;BME280;35527;54.616;39.786;2022-12-15T07:41:17;100796.59;;;-1.65;73.95
49627;BME280;35527;54.616;39.786;2022-12-15T07:44:22;100777.69;;;-1.76;71.23
49627;BME280;35527;54.616;39.786;2022-12-15T07:47:25;100784.59;;;-1.71;69.32
49627;BME280;35527;54.616;39.786;2022-12-15T07:50:29;100791.81;;;-1.54;69.75
49627;BME280;35527;54.616;39.786;2022-12-15T07:53:31;100783.72;;;-1.40;67.95
49627;BME280;35527;54.616;39.786;2022-12-15T07:56:38;100786.31;;;-1.37;66.28
49627;BME280;35527;54.616;39.786;2022-12-15T07:59:44;100778.00;;;-1.31;64.90
49627;BME280;35527;54.616;39.786;2022-12-15T08:02:48;100778.91;;;-0.93;65.13
49627;BME280;35527;54.616;39.786;2022-12-15T08:05:51;100784.19;;;-0.46;64.44
49627;BME280;35527;54.616;39.786;2022-12-15T08:08:58;100768.13;;;-0.01;62.55
49627;BME280;35527;54.616;39.786;2022-12-15T08:12:27;100767.69;;;0.20;60.77
49627;BME280;35527;54.616;39.786;2022-12-15T08:15:34;100786.00;;;0.01;61.10
49627;BME280;35527;54.616;39.786;2022-12-15T08:18:37;100781.13;;;-0.31;60.52
49627;BME280;35527;54.616;39.786;2022-12-15T08:21:44;100759.41;;;-0.56;60.98
49627;BME280;35527;54.616;39.786;2022-12-15T08:24:48;100790.66;;;-0.60;62.25
49627;BME280;35527;54.616;39.786;2022-12-15T08:27:54;100798.50;;;-0.51;61.21
49627;BME280;35527;54.616;39.786;2022-12-15T08:31:06;100788.56;;;-0.40;61.85
49627;BME280;35527;54.616;39.786;2022-12-15T08:34:10;100785.34;;;-0.31;61.74
49627;BME280;35527;54.616;39.786;2022-12-15T08:37:14;100773.44;;;-0.32;61.49
49627;BME280;35527;54.616;39.786;2022-12-15T08:40:17;100785.44;;;-0.27;61.07
49627;BME280;35527;54.616;39.786;2022-12-15T08:43:24;100786.00;;;0.03;63.87
49627;BME280;35527;54.616;39.786;2022-12-15T08:46:36;100764.72;;;0.43;63.32
49627;BME280;35527;54.616;39.786;2022-12-15T08:49:45;100772.03;;;0.76;58.81
49627;BME280;35527;54.616;39.786;2022-12-15T08:52:49;100770.34;;;0.77;58.49
49627;BME280;35527;54.616;39.786;2022-12-15T08:56:10;100770.81;;;0.53;58.92
49627;BME280;35527;54.616;39.786;2022-12-15T08:59:14;100781.47;;;0.32;58.91
49627;BME280;35527;54.616;39.786;2022-12-15T09:02:17;100805.28;;;-0.10;59.03
49627;BME280;35527;54.616;39.786;2022-12-15T09:05:20;100791.41;;;-0.25;60.03
49627;BME280;35527;54.616;39.786;2022-12-15T09:08:24;100787.06;;;-0.29;59.75
49627;BME280;35527;54.616;39.786;2022-12-15T09:11:30;100809.03;;;-0.32;59.44
49627;BME280;35527;54.616;39.786;2022-12-15T09:14:34;100799.75;;;-0.71;60.80
49627;BME280;35527;54.616;39.786;2022-12-15T09:17:39;100782.44;;;-1.57;61.97
49627;BME280;35527;54.616;39.786;2022-12-15T09:20:44;100802.59;;;-1.93;65.77
49627;BME280;35527;54.616;39.786;2022-12-15T09:23:50;100802.66;;;-1.60;68.50
49627;BME280;35527;54.616;39.786;2022-12-15T09:26:55;100802.25;;;-1.42;66.83
49627;BME280;35527;54.616;39.786;2022-12-15T09:29:58;100764.56;;;-1.93;67.22
49627;BME280;35527;54.616;39.786;2022-12-15T09:33:02;100779.94;;;-2.47;69.32
49627;BME280;35527;54.616;39.786;2022-12-15T09:36:10;100805.59;;;-3.18;72.16
49627;BME280;35527;54.616;39.786;2022-12-15T09:39:16;100790.78;;;-4.07;76.26
49627;BME280;35527;54.616;39.786;2022-12-15T09:42:26;100802.22;;;-4.63;81.62
49627;BME280;35527;54.616;39.786;2022-12-15T09:46:00;100786.44;;;-5.22;87.35
49627;BME280;35527;54.616;39.786;2022-12-15T09:49:29;100813.56;;;-5.37;92.25
49627;BME280;35527;54.616;39.786;2022-12-15T09:52:49;100808.75;;;-5.52;93.87
49627;BME280;35527;54.616;39.786;2022-12-15T09:56:00;100803.97;;;-5.65;96.70
49627;BME280;35527;54.616;39.786;2022-12-15T09:59:23;100801.00;;;-5.76;99.55
49627;BME280;35527;54.616;39.786;2022-12-15T10:06:07;100780.94;;;-6.52;100.00
49627;BME280;35527;54.616;39.786;2022-12-15T10:10:38;100787.63;;;-6.33;100.00
49627;BME280;35527;54.616;39.786;2022-12-15T10:17:51;100769.50;;;-6.26;100.00
49627;BME280;35527;54.616;39.786;2022-12-15T10:21:00;100771.13;;;-6.07;100.00
49627;BME280;35527;54.616;39.786;2022-12-15T10:24:21;100761.16;;;-5.84;100.00
49627;BME280;35527;54.616;39.786;2022-12-15T10:34:35;100710.00;;;-6.81;100.00
49627;BME280;35527;54.616;39.786;2022-12-15T10:37:49;100741.94;;;-6.60;100.00
49627;BME280;35527;54.616;39.786;2022-12-15T10:40:54;100743.06;;;-6.53;100.00
49627;BME280;35527;54.616;39.786;2022-12-15T10:43:58;100732.06;;;-6.93;100.00
49627;BME280;35527;54.616;39.786;2022-12-15T10:47:08;100720.88;;;-6.99;100.00
49627;BME280;35527;54.616;39.786;2022-12-15T10:50:25;100722.00;;;-7.11;100.00
49627;BME280;35527;54.616;39.786;2022-12-15T10:57:37;100710.97;;;-7.32;100.00
49627;BME280;35527;54.616;39.786;2022-12-15T11:00:44;100704.56;;;-7.43;100.00
49627;BME280;35527;54.616;39.786;2022-12-15T11:03:48;100719.88;;;-7.21;100.00
49627;BME280;35527;54.616;39.786;2022-12-15T11:07:00;100719.88;;;-7.03;100.00
49627;BME280;35527;54.616;39.786;2022-12-15T11:10:20;100697.81;;;-7.27;100.00
49627;BME280;35527;54.616;39.786;2022-12-15T11:13:30;100722.31;;;-7.22;100.00
49627;BME280;35527;54.616;39.786;2022-12-15T11:16:47;100720.66;;;-7.22;100.00
49627;BME280;35527;54.616;39.786;2022-12-15T11:19:59;100712.91;;;-7.09;100.00
49627;BME280;35527;54.616;39.786;2022-12-15T11:29:28;100726.28;;;-6.72;100.00
49627;BME280;35527;54.616;39.786;2022-12-15T11:32:38;100725.69;;;-6.86;100.00
49627;BME280;35527;54.616;39.786;2022-12-15T11:39:29;100734.84;;;-6.87;100.00
49627;BME280;35527;54.616;39.786;2022-12-15T11:46:13;100726.88;;;-6.96;100.00
49627;BME280;35527;54.616;39.786;2022-12-15T11:56:38;100745.03;;;-7.03;100.00
49627;BME280;35527;54.616;39.786;2022-12-15T12:00:05;100740.63;;;-7.07;100.00
49627;BME280;35527;54.616;39.786;2022-12-15T12:06:32;100744.75;;;-7.09;100.00
49627;BME280;35527;54.616;39.786;2022-12-15T12:18:44;100723.44;;;-7.16;100.00
49627;BME280;35527;54.616;39.786;2022-12-15T12:21:54;100726.09;;;-7.13;100.00
49627;BME280;35527;54.616;39.786;2022-12-15T12:25:23;100703.13;;;-7.20;100.00
49627;BME280;35527;54.616;39.786;2022-12-15T12:32:13;100710.38;;;-7.09;100.00
49627;BME280;35527;54.616;39.786;2022-12-15T12:35:44;100718.25;;;-7.01;100.00
49627;BME280;35527;54.616;39.786;2022-12-15T12:38:54;100715.47;;;-7.07;100.00
49627;BME280;35527;54.616;39.786;2022-12-15T12:42:10;100713.53;;;-7.13;100.00
49627;BME280;35527;54.616;39.786;2022-12-15T12:45:33;100726.34;;;-7.08;100.00
49627;BME280;35527;54.616;39.786;2022-12-15T12:52:03;100723.25;;;-7.03;100.00
49627;BME280;35527;54.616;39.786;2022-12-15T12:58:37;100732.59;;;-7.00;100.00
49627;BME280;35527;54.616;39.786;2022-12-15T13:01:41;100735.81;;;-7.03;100.00
49627;BME280;35527;54.616;39.786;2022-12-15T13:05:33;100741.69;;;-7.02;100.00
49627;BME280;35527;54.616;39.786;2022-12-15T13:08:52;100740.00;;;-7.03;100.00
49627;BME280;35527;54.616;39.786;2022-12-15T13:26:29;100726.59;;;-6.84;100.00
49627;BME280;35527;54.616;39.786;2022-12-15T13:29:36;100727.88;;;-6.74;100.00
49627;BME280;35527;54.616;39.786;2022-12-15T13:33:17;100702.84;;;-6.71;100.00
49627;BME280;35527;54.616;39.786;2022-12-15T13:36:41;100694.56;;;-6.69;100.00
49627;BME280;35527;54.616;39.786;2022-12-15T13:39:54;100695.09;;;-6.76;100.00
49627;BME280;35527;54.616;39.786;2022-12-15T13:46:32;100683.13;;;-6.62;100.00
49627;BME280;35527;54.616;39.786;2022-12-15T13:49:39;100686.50;;;-6.62;100.00
49627;BME280;35527;54.616;39.786;2022-12-15T13:53:18;100650.13;;;-6.68;100.00
49627;BME280;35527;54.616;39.786;2022-12-15T13:57:08;100681.81;;;-6.54;100.00
49627;BME280;35527;54.616;39.786;2022-12-15T13:59:58;100671.72;;;-6.54;100.00
49627;BME280;35527;54.616;39.786;2022-12-15T14:03:12;100651.72;;;-6.51;100.00
49627;BME280;35527;54.616;39.786;2022-12-15T14:06:17;100670.88;;;-6.54;100.00
49627;BME280;35527;54.616;39.786;2022-12-15T14:09:27;100655.81;;;-6.53;100.00
49627;BME280;35527;54.616;39.786;2022-12-15T14:12:33;100629.19;;;-6.67;100.00
49627;BME280;35527;54.616;39.786;2022-12-15T14:15:41;100640.88;;;-6.69;100.00
49627;BME280;35527;54.616;39.786;2022-12-15T14:22:39;100643.22;;;-6.53;100.00
49627;BME280;35527;54.616;39.786;2022-12-15T14:25:54;100648.34;;;-6.51;100.00
49627;BME280;35527;54.616;39.786;2022-12-15T14:29:04;100638.91;;;-6.55;100.00
49627;BME280;35527;54.616;39.786;2022-12-15T14:32:09;100636.69;;;-6.49;100.00
49627;BME280;35527;54.616;39.786;2022-12-15T14:35:15;100616.94;;;-6.60;100.00
49627;BME280;35527;54.616;39.786;2022-12-15T14:38:24;100625.75;;;-6.50;100.00
49627;BME280;35527;54.616;39.786;2022-12-15T14:41:37;100615.19;;;-6.41;100.00
49627;BME280;35527;54.616;39.786;2022-12-15T14:44:46;100571.44;;;-6.64;100.00
49627;BME280;35527;54.616;39.786;2022-12-15T14:47:56;100624.97;;;-6.49;100.00
49627;BME280;35527;54.616;39.786;2022-12-15T14:51:09;100612.16;;;-6.53;100.00
49627;BME280;35527;54.616;39.786;2022-12-15T14:54:54;100611.44;;;-6.51;100.00
49627;BME280;35527;54.616;39.786;2022-12-15T14:57:59;100592.16;;;-6.50;100.00
49627;BME280;35527;54.616;39.786;2022-12-15T15:01:02;100599.78;;;-6.49;100.00
49627;BME280;35527;54.616;39.786;2022-12-15T15:07:33;100592.09;;;-6.52;100.00
49627;BME280;35527;54.616;39.786;2022-12-15T15:10:39;100592.97;;;-6.51;100.00
49627;BME280;35527;54.616;39.786;2022-12-15T15:13:46;100588.50;;;-6.38;100.00
49627;BME280;35527;54.616;39.786;2022-12-15T15:17:23;100559.19;;;-6.36;100.00
49627;BME280;35527;54.616;39.786;2022-12-15T15:20:32;100553.25;;;-6.38;100.00
49627;BME280;35527;54.616;39.786;2022-12-15T15:23:39;100575.78;;;-6.41;100.00
49627;BME280;35527;54.616;39.786;2022-12-15T15:26:42;100533.84;;;-6.40;100.00
49627;BME280;35527;54.616;39.786;2022-12-15T15:29:47;100560.94;;;-6.35;100.00
49627;BME280;35527;54.616;39.786;2022-12-15T15:32:56;100516.88;;;-6.44;100.00
49627;BME280;35527;54.616;39.786;2022-12-15T15:36:01;100533.03;;;-6.39;100.00
49627;BME280;35527;54.616;39.786;2022-12-15T15:39:14;100490.03;;;-6.65;100.00
49627;BME280;35527;54.616;39.786;2022-12-15T15:42:17;100520.56;;;-6.36;100.00
49627;BME280;35527;54.616;39.786;2022-12-15T15:45:24;100529.25;;;-6.29;100.00
49627;BME280;35527;54.616;39.786;2022-12-15T15:48:35;100543.59;;;-6.27;100.00
49627;BME280;35527;54.616;39.786;2022-12-15T15:51:39;100527.50;;;-6.30;100.00
49627;BME280;35527;54.616;39.786;2022-12-15T15:54:47;100519.09;;;-6.31;100.00
49627;BME280;35527;54.616;39.786;2022-12-15T15:57:52;100541.47;;;-6.18;100.00
49627;BME280;35527;54.616;39.786;2022-12-15T16:00:58;100517.13;;;-6.17;100.00
49627;BME280;35527;54.616;39.786;2022-12-15T16:04:01;100540.91;;;-6.10;100.00
49627;BME280;35527;54.616;39.786;2022-12-15T16:07:04;100507.78;;;-6.20;100.00
49627;BME280;35527;54.616;39.786;2022-12-15T16:10:17;100506.88;;;-6.01;100.00
49627;BME280;35527;54.616;39.786;2022-12-15T16:13:21;100505.81;;;-6.06;100.00
49627;BME280;35527;54.616;39.786;2022-12-15T16:16:31;100516.25;;;-5.97;100.00
49627;BME280;35527;54.616;39.786;2022-12-15T16:19:35;100507.94;;;-5.94;100.00
49627;BME280;35527;54.616;39.786;2022-12-15T16:22:47;100511.72;;;-6.05;100.00
49627;BME280;35527;54.616;39.786;2022-12-15T16:25:55;100528.13;;;-5.93;100.00
49627;BME280;35527;54.616;39.786;2022-12-15T16:29:00;100497.94;;;-5.91;100.00
49627;BME280;35527;54.616;39.786;2022-12-15T16:32:07;100501.56;;;-5.84;100.00
49627;BME280;35527;54.616;39.786;2022-12-15T16:35:15;100530.94;;;-5.85;100.00
49627;BME280;35527;54.616;39.786;2022-12-15T16:38:22;100509.47;;;-5.75;100.00
49627;BME280;35527;54.616;39.786;2022-12-15T16:41:26;100490.44;;;-5.90;100.00
49627;BME280;35527;54.616;39.786;2022-12-15T16:44:30;100473.69;;;-5.89;100.00
49627;BME280;35527;54.616;39.786;2022-12-15T16:47:40;100490.09;;;-5.76;100.00
49627;BME280;35527;54.616;39.786;2022-12-15T16:50:51;100518.06;;;-5.70;100.00
49627;BME280;35527;54.616;39.786;2022-12-15T16:53:57;100502.94;;;-5.70;100.00
49627;BME280;35527;54.616;39.786;2022-12-15T16:57:00;100482.44;;;-5.79;100.00
49627;BME280;35527;54.616;39.786;2022-12-15T17:00:27;100501.13;;;-5.74;100.00
49627;BME280;35527;54.616;39.786;2022-12-15T17:03:37;100507.75;;;-5.76;100.00
49627;BME280;35527;54.616;39.786;2022-12-15T17:06:40;100502.94;;;-5.70;100.00
49627;BME280;35527;54.616;39.786;2022-12-15T17:09:43;100500.31;;;-5.73;100.00
49627;BME280;35527;54.616;39.786;2022-12-15T17:13:22;100511.59;;;-5.63;100.00
49627;BME280;35527;54.616;39.786;2022-12-15T17:16:29;100481.91;;;-5.71;100.00
49627;BME280;35527;54.616;39.786;2022-12-15T17:19:32;100481.09;;;-5.70;100.00
49627;BME280;35527;54.616;39.786;2022-12-15T17:22:36;100500.88;;;-5.58;100.00
49627;BME280;35527;54.616;39.786;2022-12-15T17:25:44;100509.47;;;-5.53;100.00
49627;BME280;35527;54.616;39.786;2022-12-15T17:29:21;100475.78;;;-5.55;100.00
49627;BME280;35527;54.616;39.786;2022-12-15T17:32:25;100483.09;;;-5.61;100.00
49627;BME280;35527;54.616;39.786;2022-12-15T17:35:31;100483.16;;;-5.59;100.00
49627;BME280;35527;54.616;39.786;2022-12-15T17:38:39;100481.72;;;-5.53;100.00
49627;BME280;35527;54.616;39.786;2022-12-15T17:41:43;100492.94;;;-5.45;100.00
49627;BME280;35527;54.616;39.786;2022-12-15T17:45:21;100488.84;;;-5.43;100.00
49627;BME280;35527;54.616;39.786;2022-12-15T17:48:24;100463.19;;;-5.55;100.00
49627;BME280;35527;54.616;39.786;2022-12-15T17:51:56;100472.66;;;-5.48;100.00
49627;BME280;35527;54.616;39.786;2022-12-15T17:55:05;100472.75;;;-5.46;100.00
49627;BME280;35527;54.616;39.786;2022-12-15T17:58:25;100486.09;;;-5.49;100.00
49627;BME280;35527;54.616;39.786;2022-12-15T18:01:28;100470.25;;;-5.45;100.00
49627;BME280;35527;54.616;39.786;2022-12-15T18:04:34;100461.91;;;-5.44;100.00
49627;BME280;35527;54.616;39.786;2022-12-15T18:08:09;100447.28;;;-5.52;100.00
49627;BME280;35527;54.616;39.786;2022-12-15T18:11:36;100449.59;;;-5.58;100.00
49627;BME280;35527;54.616;39.786;2022-12-15T18:14:49;100470.50;;;-5.61;100.00